createdAt,value
2023-05-18T00:02:24.117Z,4.23
2023-05-18T00:04:52.671Z,3.93
2023-05-18T00:07:21.551Z,4.03
2023-05-18T00:09:51.214Z,3.80
2023-05-18T00:12:19.600Z,3.70
2023-05-18T00:14:48.029Z,3.20
2023-05-18T00:17:16.687Z,4.03
2023-05-18T00:19:46.636Z,3.70
2023-05-18T00:22:18.230Z,4.20
2023-05-18T00:24:47.096Z,3.93
2023-05-18T00:27:16.962Z,3.57
2023-05-18T00:29:45.373Z,3.90
2023-05-18T00:32:13.720Z,4.50
2023-05-18T00:34:42.130Z,3.97
2023-05-18T00:37:10.516Z,4.00
2023-05-18T00:39:40.213Z,4.33
2023-05-18T00:42:08.729Z,4.10
2023-05-18T00:44:38.477Z,3.93
2023-05-18T00:47:07.096Z,3.83
2023-05-18T00:49:35.418Z,4.43
2023-05-18T00:52:04.668Z,4.00
2023-05-18T00:54:33.279Z,3.73
2023-05-18T00:57:02.558Z,4.40
2023-05-18T00:59:31.037Z,4.20
2023-05-18T01:02:01.656Z,3.80
2023-05-18T01:04:31.900Z,4.10
2023-05-18T01:07:06.855Z,4.00
2023-05-18T01:09:36.014Z,3.90
2023-05-18T01:12:07.895Z,4.07
2023-05-18T01:14:38.959Z,4.17
2023-05-18T01:17:17.197Z,4.00
2023-05-18T01:19:56.744Z,3.90
2023-05-18T01:22:34.158Z,3.93
2023-05-18T01:25:06.749Z,4.20
2023-05-18T01:27:37.728Z,4.73
2023-05-18T01:30:06.809Z,3.83
2023-05-18T01:32:42.739Z,3.70
2023-05-18T01:35:11.524Z,4.13
2023-05-18T01:37:39.883Z,3.57
2023-05-18T01:40:09.721Z,3.80
2023-05-18T01:42:43.961Z,3.80
2023-05-18T01:45:17.335Z,4.23
2023-05-18T01:47:47.241Z,3.60
2023-05-18T01:50:16.709Z,4.27
2023-05-18T01:52:46.413Z,3.63
2023-05-18T01:55:16.701Z,3.83
2023-05-18T01:57:46.972Z,3.93
2023-05-18T02:00:16.660Z,4.00
2023-05-18T02:02:45.565Z,4.43
2023-05-18T02:05:13.981Z,3.73
2023-05-18T02:07:44.034Z,4.03
2023-05-18T02:10:13.102Z,4.00
2023-05-18T02:12:41.632Z,3.93
2023-05-18T02:15:12.265Z,4.37
2023-05-18T02:17:40.646Z,4.53
2023-05-18T02:20:10.206Z,4.53
2023-05-18T02:22:38.913Z,4.20
2023-05-18T02:25:07.584Z,4.20
2023-05-18T02:27:36.758Z,4.10
2023-05-18T02:30:06.076Z,4.60
2023-05-18T02:32:38.883Z,4.10
2023-05-18T02:35:07.955Z,4.90
2023-05-18T02:37:40.068Z,4.73
2023-05-18T02:40:09.321Z,4.00
2023-05-18T02:42:37.647Z,4.60
2023-05-18T02:45:06.346Z,4.97
2023-05-18T02:47:36.663Z,5.23
2023-05-18T02:50:05.455Z,5.43
2023-05-18T02:52:34.207Z,4.40
2023-05-18T02:55:03.128Z,4.77
2023-05-18T02:57:32.759Z,4.37
2023-05-18T03:00:01.366Z,4.90
2023-05-18T03:02:30.157Z,4.57
2023-05-18T03:04:59.959Z,5.37
2023-05-18T03:07:28.618Z,4.60
2023-05-18T03:09:56.894Z,4.37
2023-05-18T03:12:25.202Z,5.07
2023-05-18T03:14:53.462Z,5.27
2023-05-18T03:17:21.800Z,5.40
2023-05-18T03:19:51.467Z,5.47
2023-05-18T03:22:21.537Z,5.40
2023-05-18T03:24:51.358Z,5.70
2023-05-18T03:27:25.347Z,5.47
2023-05-18T03:29:54.179Z,5.03
2023-05-18T03:32:22.463Z,5.67
2023-05-18T03:34:51.181Z,6.23
2023-05-18T03:37:21.068Z,5.80
2023-05-18T03:39:49.495Z,6.10
2023-05-18T03:42:18.320Z,5.43
2023-05-18T03:44:47.431Z,5.80
2023-05-18T03:47:15.869Z,5.57
2023-05-18T03:49:44.210Z,5.93
2023-05-18T03:52:15.290Z,6.30
2023-05-18T03:54:46.103Z,5.73
2023-05-18T03:57:15.007Z,6.00
2023-05-18T03:59:43.624Z,5.57
2023-05-18T04:02:13.576Z,6.30
2023-05-18T04:04:46.531Z,5.67
2023-05-18T04:07:16.770Z,6.57
2023-05-18T04:09:47.660Z,5.37
2023-05-18T04:12:16.980Z,6.33
2023-05-18T04:14:50.431Z,5.73
2023-05-18T04:17:23.084Z,5.83
2023-05-18T04:19:52.918Z,6.27
2023-05-18T04:22:25.646Z,6.40
2023-05-18T04:24:57.418Z,5.83
2023-05-18T04:27:26.967Z,6.30
2023-05-18T04:29:55.734Z,6.10
2023-05-18T04:32:27.162Z,6.77
2023-05-18T04:34:58.741Z,6.03
2023-05-18T04:37:28.345Z,6.43
2023-05-18T04:39:59.380Z,6.97
2023-05-18T04:42:28.195Z,6.23
2023-05-18T04:44:57.302Z,6.40
2023-05-18T04:47:27.398Z,6.37
2023-05-18T04:49:56.612Z,6.23
2023-05-18T04:52:27.242Z,7.20
2023-05-18T04:55:00.415Z,6.60
2023-05-18T04:57:31.148Z,6.40
2023-05-18T05:00:00.002Z,6.13
2023-05-18T05:02:29.057Z,6.10
2023-05-18T05:05:28.648Z,6.07
2023-05-18T05:08:15.890Z,5.63
2023-05-18T05:10:48.172Z,5.30
2023-05-18T05:13:32.835Z,6.60
2023-05-18T05:16:03.291Z,6.27
2023-05-18T05:18:32.639Z,6.67
2023-05-18T05:21:13.162Z,6.53
2023-05-18T05:23:42.292Z,6.03
2023-05-18T05:26:14.048Z,5.80
2023-05-18T05:28:45.879Z,6.87
2023-05-18T05:31:15.637Z,7.03
2023-05-18T05:33:50.526Z,6.50
2023-05-18T05:36:19.616Z,6.23
2023-05-18T05:38:49.632Z,6.33
2023-05-18T05:41:21.880Z,6.20
2023-05-18T05:43:57.556Z,6.20
2023-05-18T05:46:27.255Z,5.90
2023-05-18T05:48:56.657Z,6.27
2023-05-18T05:51:26.610Z,6.50
2023-05-18T05:53:58.001Z,5.93
2023-05-18T05:56:26.280Z,6.17
2023-05-18T05:58:55.844Z,6.90
2023-05-18T06:01:24.034Z,5.77
2023-05-18T06:03:52.416Z,5.30
2023-05-18T06:06:21.738Z,6.03
2023-05-18T06:08:50.249Z,6.03
2023-05-18T06:11:18.481Z,6.33
2023-05-18T06:13:46.735Z,6.00
2023-05-18T06:16:16.320Z,6.20
2023-05-18T06:18:44.523Z,5.60
2023-05-18T06:21:12.786Z,6.07
2023-05-18T06:23:42.126Z,6.37
2023-05-18T06:26:10.482Z,5.93
2023-05-18T06:28:38.698Z,6.23
2023-05-18T06:31:06.971Z,6.03
2023-05-18T06:33:36.771Z,6.13
2023-05-18T06:36:05.625Z,6.33
2023-05-18T06:38:33.868Z,5.13
2023-05-18T06:41:02.081Z,5.27
2023-05-18T06:43:30.444Z,5.63
2023-05-18T06:45:58.677Z,5.37
2023-05-18T06:48:27.486Z,5.50
2023-05-18T06:50:57.152Z,5.23
2023-05-18T06:53:26.389Z,5.07
2023-05-18T06:55:54.631Z,5.67
2023-05-18T06:58:22.835Z,4.87
2023-05-18T07:00:51.160Z,5.57
2023-05-18T07:03:19.380Z,4.63
2023-05-18T07:05:47.783Z,4.40
2023-05-18T07:08:17.397Z,4.37
2023-05-18T07:10:45.693Z,4.87
2023-05-18T07:13:13.932Z,4.77
2023-05-18T07:15:42.638Z,4.77
2023-05-18T07:18:10.938Z,4.30
2023-05-18T07:20:39.301Z,3.70
2023-05-18T07:23:07.957Z,3.77
2023-05-18T07:25:37.517Z,4.20
2023-05-18T07:28:05.892Z,4.13
2023-05-18T07:30:34.172Z,4.20
2023-05-18T07:33:02.880Z,4.27
2023-05-18T07:35:31.416Z,3.90
2023-05-18T07:37:59.832Z,4.40
2023-05-18T07:40:28.132Z,3.50
2023-05-18T07:42:57.724Z,3.90
2023-05-18T07:45:26.697Z,3.50
2023-05-18T07:47:57.674Z,4.17
2023-05-18T07:50:26.919Z,3.70
2023-05-18T07:52:55.259Z,4.03
2023-05-18T07:55:23.601Z,4.10
2023-05-18T07:57:51.951Z,4.10
2023-05-18T08:00:24.327Z,3.27
2023-05-18T08:02:52.976Z,3.40
2023-05-18T08:05:22.606Z,3.73
2023-05-18T08:07:51.122Z,3.37
2023-05-18T08:10:19.413Z,4.40
2023-05-18T08:12:48.587Z,3.37
2023-05-18T08:15:17.371Z,3.30
2023-05-18T08:17:47.432Z,2.93
2023-05-18T08:20:17.186Z,3.30
2023-05-18T08:22:47.612Z,2.80
2023-05-18T08:25:15.898Z,3.10
2023-05-18T08:27:46.478Z,4.40
2023-05-18T08:30:15.545Z,3.50
2023-05-18T08:32:45.085Z,4.03
2023-05-18T08:35:14.996Z,3.37
2023-05-18T08:37:43.333Z,3.53
2023-05-18T08:40:12.829Z,3.43
2023-05-18T08:42:49.939Z,2.93
2023-05-18T08:45:22.884Z,3.30
2023-05-18T08:47:52.331Z,3.23
2023-05-18T08:50:28.303Z,2.67
2023-05-18T08:52:57.734Z,3.37
2023-05-18T08:55:27.556Z,3.43
2023-05-18T08:57:57.984Z,3.27
2023-05-18T09:00:26.534Z,3.10
2023-05-18T09:02:55.054Z,2.90
2023-05-18T09:05:25.132Z,2.93
2023-05-18T09:07:53.619Z,3.20
2023-05-18T09:10:23.291Z,3.03
2023-05-18T09:12:54.914Z,3.10
2023-05-18T09:15:25.298Z,2.70
2023-05-18T09:17:54.122Z,2.77
2023-05-18T09:20:22.622Z,3.00
2023-05-18T09:22:52.248Z,3.43
2023-05-18T09:25:20.558Z,3.40
2023-05-18T09:27:51.855Z,2.80
2023-05-18T09:30:20.117Z,3.37
2023-05-18T09:32:49.173Z,3.07
2023-05-18T09:35:17.739Z,3.73
2023-05-18T09:37:46.202Z,3.20
2023-05-18T09:40:16.694Z,3.40
2023-05-18T09:42:45.879Z,3.23
2023-05-18T09:45:18.912Z,3.10
2023-05-18T09:47:47.555Z,2.87
2023-05-18T09:50:16.032Z,3.20
2023-05-18T09:52:46.189Z,2.90
2023-05-18T09:55:17.327Z,3.83
2023-05-18T09:57:46.332Z,2.83
2023-05-18T10:00:15.826Z,3.53
2023-05-18T10:02:48.732Z,3.40
2023-05-18T10:05:21.135Z,3.23
2023-05-18T10:07:49.764Z,3.00
2023-05-18T10:10:20.805Z,3.17
2023-05-18T10:12:49.393Z,3.37
2023-05-18T10:15:17.957Z,3.53
2023-05-18T10:17:46.691Z,3.00
2023-05-18T10:20:17.258Z,2.80
2023-05-18T10:22:46.973Z,3.13
2023-05-18T10:25:17.986Z,2.93
2023-05-18T10:27:49.626Z,2.50
2023-05-18T10:30:18.846Z,3.17
2023-05-18T10:32:47.390Z,3.00
2023-05-18T10:35:16.172Z,3.03
2023-05-18T10:37:47.283Z,3.13
2023-05-18T10:40:16.034Z,2.87
2023-05-18T10:42:47.662Z,2.67
2023-05-18T10:45:17.351Z,2.63
2023-05-18T10:47:46.161Z,3.43
2023-05-18T10:50:14.471Z,3.10
2023-05-18T10:52:43.398Z,3.00
2023-05-18T10:55:12.551Z,2.80
2023-05-18T10:57:45.289Z,2.60
2023-05-18T11:00:14.303Z,3.07
2023-05-18T11:02:44.322Z,3.17
2023-05-18T11:05:13.488Z,2.57
2023-05-18T11:07:42.615Z,3.10
2023-05-18T11:10:13.902Z,2.70
2023-05-18T11:12:43.097Z,2.80
2023-05-18T11:15:13.029Z,2.67
2023-05-18T11:17:41.528Z,2.80
2023-05-18T11:20:15.656Z,2.60
2023-05-18T11:22:47.674Z,2.77
2023-05-18T11:25:44.007Z,2.60
2023-05-18T11:28:13.918Z,2.80
2023-05-18T11:30:48.136Z,2.40
2023-05-18T11:33:26.188Z,3.13
2023-05-18T11:36:03.152Z,2.83
2023-05-18T11:38:48.004Z,3.00
2023-05-18T11:41:34.176Z,2.30
2023-05-18T11:44:12.163Z,2.77
2023-05-18T11:46:42.358Z,2.40
2023-05-18T11:49:10.942Z,2.67
2023-05-18T11:51:54.479Z,3.07
2023-05-18T11:54:26.091Z,2.97
2023-05-18T11:56:54.880Z,3.03
2023-05-18T11:59:33.672Z,2.80
2023-05-18T12:02:05.280Z,2.93
2023-05-18T12:04:34.119Z,2.47
2023-05-18T12:07:06.677Z,2.97
2023-05-18T12:09:36.878Z,2.40
2023-05-18T12:12:07.541Z,2.27
2023-05-18T12:14:36.641Z,2.90
2023-05-18T12:17:05.906Z,2.53
2023-05-18T12:19:38.634Z,2.33
2023-05-18T12:22:06.963Z,2.63
2023-05-18T12:24:37.058Z,2.50
2023-05-18T12:27:08.193Z,3.57
2023-05-18T12:29:37.072Z,2.60
2023-05-18T12:32:07.337Z,2.93
2023-05-18T12:34:35.633Z,2.13
2023-05-18T12:37:04.302Z,2.40
2023-05-18T12:39:32.849Z,2.10
2023-05-18T12:42:12.076Z,2.07
2023-05-18T12:44:40.824Z,2.30
2023-05-18T12:47:09.286Z,3.00
2023-05-18T12:49:38.243Z,2.90
2023-05-18T12:52:13.500Z,2.60
2023-05-18T12:55:00.073Z,2.20
2023-05-18T12:57:30.958Z,2.00
2023-05-18T13:00:01.084Z,2.20
2023-05-18T13:02:30.709Z,2.50
2023-05-18T13:05:06.269Z,2.20
2023-05-18T13:07:34.970Z,2.37
2023-05-18T13:10:04.397Z,1.90
2023-05-18T13:12:44.790Z,2.13
2023-05-18T13:15:13.508Z,2.40
2023-05-18T13:17:49.796Z,2.30
2023-05-18T13:20:18.380Z,2.83
2023-05-18T13:22:47.501Z,2.63
2023-05-18T13:25:16.306Z,2.47
2023-05-18T13:27:48.750Z,2.30
2023-05-18T13:30:18.142Z,2.60
2023-05-18T13:32:46.657Z,2.63
2023-05-18T13:35:15.213Z,2.23
2023-05-18T13:37:43.387Z,2.60
2023-05-18T13:40:13.611Z,2.70
2023-05-18T13:42:41.814Z,2.83
2023-05-18T13:45:15.087Z,2.40
2023-05-18T13:47:45.867Z,2.80
2023-05-18T13:50:14.496Z,2.57
2023-05-18T13:52:42.752Z,2.70
2023-05-18T13:55:12.497Z,2.50
2023-05-18T13:57:43.234Z,2.00
2023-05-18T14:00:13.971Z,2.60
2023-05-18T14:02:42.437Z,2.37
2023-05-18T14:05:11.209Z,2.63
2023-05-18T14:07:39.851Z,2.20
2023-05-18T14:10:09.698Z,2.27
2023-05-18T14:12:38.068Z,2.30
2023-05-18T14:15:06.829Z,2.67
2023-05-18T14:17:36.407Z,2.87
2023-05-18T14:20:06.120Z,2.17
2023-05-18T14:22:34.533Z,2.50
2023-05-18T14:25:03.194Z,3.00
2023-05-18T14:27:31.893Z,2.27
2023-05-18T14:30:00.174Z,2.63
2023-05-18T14:32:28.528Z,2.17
2023-05-18T14:34:58.509Z,2.10
2023-05-18T14:37:26.817Z,2.53
2023-05-18T14:39:55.043Z,2.53
2023-05-18T14:42:23.465Z,2.37
2023-05-18T14:44:51.658Z,2.30
2023-05-18T14:47:19.915Z,2.70
2023-05-18T14:49:49.175Z,2.40
2023-05-18T14:52:18.776Z,2.10
2023-05-18T14:54:47.735Z,2.20
2023-05-18T14:57:16.284Z,2.43
2023-05-18T14:59:44.544Z,2.70
2023-05-18T15:02:13.116Z,2.50
2023-05-18T15:04:41.382Z,1.93
2023-05-18T15:07:09.664Z,2.77
2023-05-18T15:09:39.237Z,2.47
2023-05-18T15:12:07.662Z,2.30
2023-05-18T15:14:35.925Z,2.20
2023-05-18T15:17:04.111Z,1.87
2023-05-18T15:19:32.355Z,1.90
2023-05-18T15:22:00.517Z,1.70
2023-05-18T15:24:28.708Z,1.97
2023-05-18T15:26:58.276Z,1.43
2023-05-18T15:29:26.591Z,1.60
2023-05-18T15:31:55.227Z,1.63
2023-05-18T15:34:23.441Z,2.23
2023-05-18T15:36:53.325Z,1.30
2023-05-18T15:39:21.656Z,1.80
2023-05-18T15:41:49.963Z,1.90
2023-05-18T15:44:19.526Z,1.80
2023-05-18T15:46:48.825Z,1.63
2023-05-18T15:49:17.061Z,2.00
2023-05-18T15:51:45.232Z,2.13
2023-05-18T15:54:13.435Z,1.77
2023-05-18T15:56:41.871Z,2.20
2023-05-18T15:59:10.162Z,1.70
2023-05-18T16:01:39.774Z,1.50
2023-05-18T16:04:07.995Z,1.90
2023-05-18T16:06:37.200Z,2.23
2023-05-18T16:09:05.512Z,1.70
2023-05-18T16:11:35.568Z,1.67
2023-05-18T16:14:03.767Z,2.37
2023-05-18T16:16:32.698Z,1.83
2023-05-18T16:19:03.189Z,1.93
2023-05-18T16:21:31.665Z,1.40
2023-05-18T16:24:00.084Z,1.80
2023-05-18T16:26:28.690Z,1.47
2023-05-18T16:28:59.632Z,2.13
2023-05-18T16:31:28.236Z,1.80
2023-05-18T16:33:59.674Z,1.90
2023-05-18T16:36:32.220Z,2.00
2023-05-18T16:39:02.727Z,1.70
2023-05-18T16:41:31.040Z,1.93
2023-05-18T16:43:59.286Z,2.40
2023-05-18T16:46:27.536Z,2.00
2023-05-18T16:48:55.951Z,1.97
2023-05-18T16:51:26.618Z,1.57
2023-05-18T16:53:57.206Z,1.70
2023-05-18T16:56:25.450Z,1.60
2023-05-18T16:58:53.995Z,1.77
2023-05-18T17:01:28.143Z,1.80
2023-05-18T17:03:57.440Z,2.20
2023-05-18T17:06:26.127Z,1.80
2023-05-18T17:08:57.985Z,1.80
2023-05-18T17:11:28.302Z,1.80
2023-05-18T17:13:59.450Z,2.10
2023-05-18T17:16:28.400Z,1.63
2023-05-18T17:18:57.510Z,1.53
2023-05-18T17:21:28.224Z,1.53
2023-05-18T17:23:56.659Z,1.53
2023-05-18T17:26:30.593Z,1.53
2023-05-18T17:29:00.326Z,1.80
2023-05-18T17:31:28.841Z,1.60
2023-05-18T17:33:57.129Z,2.00
2023-05-18T17:36:25.625Z,2.00
2023-05-18T17:38:54.515Z,1.80
2023-05-18T17:41:22.917Z,1.90
2023-05-18T17:43:51.210Z,2.00
2023-05-18T17:46:20.819Z,2.03
2023-05-18T17:48:49.013Z,2.10
2023-05-18T17:51:17.208Z,2.10
2023-05-18T17:53:45.740Z,2.00
2023-05-18T17:56:14.166Z,1.90
2023-05-18T17:58:42.372Z,1.73
2023-05-18T18:01:12.134Z,2.10
2023-05-18T18:03:42.730Z,2.20
2023-05-18T18:06:11.389Z,2.07
2023-05-18T18:08:39.695Z,2.03
2023-05-18T18:11:09.476Z,2.53
2023-05-18T18:13:37.739Z,2.43
2023-05-18T18:16:06.237Z,2.20
2023-05-18T18:18:36.086Z,1.80
2023-05-18T18:21:06.621Z,2.10
2023-05-18T18:23:34.987Z,2.27
2023-05-18T18:26:04.114Z,2.13
2023-05-18T18:28:32.558Z,3.47
2023-05-18T18:31:00.938Z,2.30
2023-05-18T18:33:29.241Z,2.33
2023-05-18T18:35:58.367Z,2.53
2023-05-18T18:38:30.539Z,3.80
2023-05-18T18:41:01.696Z,2.00
2023-05-18T18:43:30.636Z,2.07
2023-05-18T18:45:59.022Z,2.17
2023-05-18T18:48:27.443Z,2.00
2023-05-18T18:50:56.134Z,1.87
2023-05-18T18:53:24.660Z,2.27
2023-05-18T18:55:54.210Z,1.97
2023-05-18T18:58:24.196Z,2.47
2023-05-18T19:00:52.901Z,2.60
2023-05-18T19:03:21.810Z,2.97
2023-05-18T19:05:50.947Z,2.63
2023-05-18T19:08:19.220Z,2.30
2023-05-18T19:10:47.434Z,2.23
2023-05-18T19:13:17.075Z,2.10
2023-05-18T19:15:47.294Z,2.23
2023-05-18T19:18:15.898Z,2.40
2023-05-18T19:20:44.092Z,1.90
2023-05-18T19:23:14.737Z,2.10
2023-05-18T19:25:42.992Z,2.00
2023-05-18T19:28:12.442Z,1.70
2023-05-18T19:30:42.054Z,2.00
2023-05-18T19:33:10.552Z,2.10
2023-05-18T19:35:39.479Z,2.53
2023-05-18T19:38:09.426Z,2.20
2023-05-18T19:40:37.658Z,2.00
2023-05-18T19:43:06.161Z,2.53
2023-05-18T19:45:34.891Z,2.17
2023-05-18T19:48:05.013Z,2.00
2023-05-18T19:50:33.247Z,1.90
2023-05-18T19:53:01.477Z,1.73
2023-05-18T19:55:31.118Z,2.00
2023-05-18T19:57:59.663Z,1.93
2023-05-18T20:00:28.481Z,2.13
2023-05-18T20:03:02.162Z,1.77
2023-05-18T20:05:33.322Z,1.80
2023-05-18T20:08:04.988Z,1.73
2023-05-18T20:10:33.708Z,1.80
2023-05-18T20:13:02.487Z,2.00
2023-05-18T20:15:32.502Z,1.70
2023-05-18T20:18:01.849Z,1.77
2023-05-18T20:20:33.470Z,1.67
2023-05-18T20:23:01.962Z,2.07
2023-05-18T20:25:35.046Z,2.03
2023-05-18T20:28:06.962Z,1.93
2023-05-18T20:30:35.369Z,1.97
2023-05-18T20:33:04.824Z,2.27
2023-05-18T20:35:36.121Z,2.07
2023-05-18T20:38:04.802Z,2.20
2023-05-18T20:40:33.467Z,2.23
2023-05-18T20:43:02.182Z,2.03
2023-05-18T20:45:31.320Z,2.10
2023-05-18T20:48:00.906Z,1.80
2023-05-18T20:50:29.470Z,1.87
2023-05-18T20:52:59.237Z,1.80
2023-05-18T20:55:28.886Z,2.20
2023-05-18T20:57:57.151Z,2.47
2023-05-18T21:00:26.143Z,2.30
2023-05-18T21:11:44.963Z,3.27
2023-05-18T21:17:04.231Z,2.60
2023-05-18T21:19:35.121Z,2.80
2023-05-18T21:22:03.942Z,2.70
2023-05-18T21:24:34.363Z,2.20
2023-05-18T21:27:03.065Z,2.57
2023-05-18T21:29:35.786Z,2.40
2023-05-18T21:34:46.988Z,2.97
2023-05-18T21:37:15.876Z,2.80
2023-05-18T21:39:44.382Z,2.97
2023-05-18T21:42:12.940Z,3.13
2023-05-18T21:44:43.068Z,2.80
2023-05-18T21:47:12.378Z,3.00
2023-05-18T21:49:41.156Z,2.67
2023-05-18T21:52:09.870Z,3.37
2023-05-18T21:54:40.043Z,3.13
2023-05-18T21:57:09.170Z,3.30
2023-05-18T21:59:37.747Z,3.27
2023-05-18T22:02:08.580Z,3.53
2023-05-18T22:04:38.642Z,3.33
2023-05-18T22:07:07.831Z,3.23
2023-05-18T22:09:36.792Z,3.60
2023-05-18T22:12:05.940Z,3.50
2023-05-18T22:14:34.610Z,3.33
2023-05-18T22:17:05.164Z,3.40
2023-05-18T22:19:35.531Z,3.10
2023-05-18T22:22:04.221Z,3.13
2023-05-18T22:24:32.624Z,3.83
2023-05-18T22:27:01.935Z,3.90
2023-05-18T22:29:31.653Z,3.60
2023-05-18T22:32:02.200Z,4.17
2023-05-18T22:34:35.738Z,3.70
2023-05-18T22:37:35.370Z,3.60
2023-05-18T22:45:44.420Z,3.77
2023-05-18T22:48:15.701Z,4.03
2023-05-18T22:50:49.058Z,4.07
2023-05-18T22:56:16.222Z,3.70
2023-05-18T22:58:53.196Z,3.43
2023-05-18T23:01:23.692Z,3.43
2023-05-18T23:06:40.114Z,3.77
2023-05-18T23:09:21.664Z,4.37
2023-05-18T23:11:53.898Z,4.47
2023-05-18T23:14:24.483Z,3.53
2023-05-18T23:16:53.640Z,3.97
2023-05-18T23:19:24.766Z,4.77
2023-05-18T23:24:30.452Z,3.60
2023-05-18T23:27:05.955Z,3.80
2023-05-18T23:29:47.687Z,4.07
2023-05-18T23:32:16.849Z,3.73
2023-05-18T23:34:47.345Z,4.77
2023-05-18T23:37:25.033Z,4.23
2023-05-18T23:39:56.405Z,5.20
2023-05-18T23:45:18.700Z,3.63
2023-05-18T23:50:32.647Z,4.50
2023-05-18T23:53:04.459Z,4.20
2023-05-18T23:55:35.627Z,3.63
